sensor_id;sensor_type;location;lat;lon;timestamp;temperature;humidity
37678;DHT22;23517;50.390;8.616;2023-05-14T00:01:02;9.50;79.40
37678;DHT22;23517;50.390;8.616;2023-05-14T00:03:29;9.50;81.30
37678;DHT22;23517;50.390;8.616;2023-05-14T00:05:56;9.50;81.60
37678;DHT22;23517;50.390;8.616;2023-05-14T00:08:23;9.50;80.90
37678;DHT22;23517;50.390;8.616;2023-05-14T00:10:51;9.50;81.10
37678;DHT22;23517;50.390;8.616;2023-05-14T00:13:18;9.50;80.70
37678;DHT22;23517;50.390;8.616;2023-05-14T00:15:45;9.50;80.30
37678;DHT22;23517;50.390;8.616;2023-05-14T00:18:12;9.50;79.60
37678;DHT22;23517;50.390;8.616;2023-05-14T00:20:40;9.50;78.80
37678;DHT22;23517;50.390;8.616;2023-05-14T00:23:07;9.50;77.30
37678;DHT22;23517;50.390;8.616;2023-05-14T00:25:34;9.40;78.20
37678;DHT22;23517;50.390;8.616;2023-05-14T00:28:02;9.30;78.40
37678;DHT22;23517;50.390;8.616;2023-05-14T00:30:29;9.10;77.60
37678;DHT22;23517;50.390;8.616;2023-05-14T00:32:56;9.00;80.40
37678;DHT22;23517;50.390;8.616;2023-05-14T00:35:22;9.00;81.10
37678;DHT22;23517;50.390;8.616;2023-05-14T00:37:49;9.00;80.80
37678;DHT22;23517;50.390;8.616;2023-05-14T00:40:16;9.00;81.00
37678;DHT22;23517;50.390;8.616;2023-05-14T00:42:42;9.00;80.40
37678;DHT22;23517;50.390;8.616;2023-05-14T00:45:09;9.00;80.40
37678;DHT22;23517;50.390;8.616;2023-05-14T00:47:36;8.90;80.40
37678;DHT22;23517;50.390;8.616;2023-05-14T00:50:05;8.90;81.60
37678;DHT22;23517;50.390;8.616;2023-05-14T00:52:32;8.80;81.40
37678;DHT22;23517;50.390;8.616;2023-05-14T00:54:59;8.80;82.10
37678;DHT22;23517;50.390;8.616;2023-05-14T00:57:29;8.80;81.40
37678;DHT22;23517;50.390;8.616;2023-05-14T00:59:56;8.80;80.60
37678;DHT22;23517;50.390;8.616;2023-05-14T01:02:23;8.80;80.40
37678;DHT22;23517;50.390;8.616;2023-05-14T01:04:50;8.70;78.00
37678;DHT22;23517;50.390;8.616;2023-05-14T01:07:38;8.60;79.10
37678;DHT22;23517;50.390;8.616;2023-05-14T01:16:12;8.50;81.90
37678;DHT22;23517;50.390;8.616;2023-05-14T01:18:40;8.50;81.30
37678;DHT22;23517;50.390;8.616;2023-05-14T01:21:37;8.60;81.00
37678;DHT22;23517;50.390;8.616;2023-05-14T01:24:08;8.60;80.50
37678;DHT22;23517;50.390;8.616;2023-05-14T01:26:35;8.60;80.60
37678;DHT22;23517;50.390;8.616;2023-05-14T01:29:21;8.50;80.30
37678;DHT22;23517;50.390;8.616;2023-05-14T01:31:49;8.40;79.40
37678;DHT22;23517;50.390;8.616;2023-05-14T01:34:21;8.40;78.80
37678;DHT22;23517;50.390;8.616;2023-05-14T01:36:50;8.30;78.70
37678;DHT22;23517;50.390;8.616;2023-05-14T01:39:18;8.30;80.00
37678;DHT22;23517;50.390;8.616;2023-05-14T01:41:45;8.30;81.80
37678;DHT22;23517;50.390;8.616;2023-05-14T01:44:11;8.20;81.30
37678;DHT22;23517;50.390;8.616;2023-05-14T01:46:38;8.30;81.20
37678;DHT22;23517;50.390;8.616;2023-05-14T01:49:05;8.20;80.30
37678;DHT22;23517;50.390;8.616;2023-05-14T01:51:31;8.10;81.50
37678;DHT22;23517;50.390;8.616;2023-05-14T01:53:58;8.10;82.50
37678;DHT22;23517;50.390;8.616;2023-05-14T01:56:25;8.10;81.70
37678;DHT22;23517;50.390;8.616;2023-05-14T01:58:52;8.20;81.60
37678;DHT22;23517;50.390;8.616;2023-05-14T02:01:19;8.10;81.60
37678;DHT22;23517;50.390;8.616;2023-05-14T02:03:46;8.10;81.70
37678;DHT22;23517;50.390;8.616;2023-05-14T02:06:12;8.10;82.20
37678;DHT22;23517;50.390;8.616;2023-05-14T02:08:39;8.10;81.70
37678;DHT22;23517;50.390;8.616;2023-05-14T02:11:06;8.00;81.50
37678;DHT22;23517;50.390;8.616;2023-05-14T02:13:32;7.90;81.50
37678;DHT22;23517;50.390;8.616;2023-05-14T02:16:03;7.90;81.50
37678;DHT22;23517;50.390;8.616;2023-05-14T02:18:31;7.80;81.00
37678;DHT22;23517;50.390;8.616;2023-05-14T02:21:01;7.80;82.50
37678;DHT22;23517;50.390;8.616;2023-05-14T02:23:27;7.90;83.40
37678;DHT22;23517;50.390;8.616;2023-05-14T02:26:07;8.00;82.50
37678;DHT22;23517;50.390;8.616;2023-05-14T02:28:35;8.00;82.40
37678;DHT22;23517;50.390;8.616;2023-05-14T02:31:01;8.10;81.90
37678;DHT22;23517;50.390;8.616;2023-05-14T02:33:28;8.00;79.60
37678;DHT22;23517;50.390;8.616;2023-05-14T02:35:55;7.90;79.10
37678;DHT22;23517;50.390;8.616;2023-05-14T02:38:22;7.90;79.90
37678;DHT22;23517;50.390;8.616;2023-05-14T02:40:49;7.80;81.00
37678;DHT22;23517;50.390;8.616;2023-05-14T02:43:15;7.90;81.30
37678;DHT22;23517;50.390;8.616;2023-05-14T02:45:42;7.90;81.50
37678;DHT22;23517;50.390;8.616;2023-05-14T02:48:08;7.90;81.30
37678;DHT22;23517;50.390;8.616;2023-05-14T02:50:35;7.90;80.70
37678;DHT22;23517;50.390;8.616;2023-05-14T02:53:02;7.90;80.50
37678;DHT22;23517;50.390;8.616;2023-05-14T02:55:29;7.90;80.30
37678;DHT22;23517;50.390;8.616;2023-05-14T02:57:55;7.90;79.80
37678;DHT22;23517;50.390;8.616;2023-05-14T03:00:22;7.80;80.10
37678;DHT22;23517;50.390;8.616;2023-05-14T03:02:50;7.70;78.80
37678;DHT22;23517;50.390;8.616;2023-05-14T03:05:17;7.60;78.30
37678;DHT22;23517;50.390;8.616;2023-05-14T03:07:44;7.50;78.20
37678;DHT22;23517;50.390;8.616;2023-05-14T03:10:11;7.50;79.40
37678;DHT22;23517;50.390;8.616;2023-05-14T03:12:38;7.50;80.80
37678;DHT22;23517;50.390;8.616;2023-05-14T03:15:05;7.50;81.30
37678;DHT22;23517;50.390;8.616;2023-05-14T03:17:33;7.50;82.00
37678;DHT22;23517;50.390;8.616;2023-05-14T03:20:00;7.60;82.00
37678;DHT22;23517;50.390;8.616;2023-05-14T03:22:26;7.70;81.50
37678;DHT22;23517;50.390;8.616;2023-05-14T03:24:53;7.70;81.40
37678;DHT22;23517;50.390;8.616;2023-05-14T03:27:20;7.60;81.30
37678;DHT22;23517;50.390;8.616;2023-05-14T03:29:46;7.50;80.00
37678;DHT22;23517;50.390;8.616;2023-05-14T03:32:13;7.50;81.60
37678;DHT22;23517;50.390;8.616;2023-05-14T03:34:40;7.50;80.70
37678;DHT22;23517;50.390;8.616;2023-05-14T03:37:07;7.50;80.50
37678;DHT22;23517;50.390;8.616;2023-05-14T03:39:34;7.40;79.00
37678;DHT22;23517;50.390;8.616;2023-05-14T03:42:00;7.40;79.60
37678;DHT22;23517;50.390;8.616;2023-05-14T03:44:27;7.40;79.30
37678;DHT22;23517;50.390;8.616;2023-05-14T03:46:54;7.40;79.70
37678;DHT22;23517;50.390;8.616;2023-05-14T03:49:21;7.40;79.10
37678;DHT22;23517;50.390;8.616;2023-05-14T03:51:47;7.40;79.30
37678;DHT22;23517;50.390;8.616;2023-05-14T03:54:14;7.40;79.20
37678;DHT22;23517;50.390;8.616;2023-05-14T03:56:41;7.50;78.70
37678;DHT22;23517;50.390;8.616;2023-05-14T03:59:07;7.50;78.00
37678;DHT22;23517;50.390;8.616;2023-05-14T04:01:34;7.40;76.80
37678;DHT22;23517;50.390;8.616;2023-05-14T04:04:01;7.40;77.70
37678;DHT22;23517;50.390;8.616;2023-05-14T04:06:27;7.50;78.70
37678;DHT22;23517;50.390;8.616;2023-05-14T04:08:54;7.60;78.70
37678;DHT22;23517;50.390;8.616;2023-05-14T04:11:21;7.70;78.90
37678;DHT22;23517;50.390;8.616;2023-05-14T04:13:47;7.70;77.50
37678;DHT22;23517;50.390;8.616;2023-05-14T04:16:14;7.70;75.80
37678;DHT22;23517;50.390;8.616;2023-05-14T04:18:40;7.60;74.80
37678;DHT22;23517;50.390;8.616;2023-05-14T04:21:07;7.50;74.40
37678;DHT22;23517;50.390;8.616;2023-05-14T04:23:34;7.40;74.70
37678;DHT22;23517;50.390;8.616;2023-05-14T04:26:00;7.40;75.60
37678;DHT22;23517;50.390;8.616;2023-05-14T04:28:27;7.30;77.00
37678;DHT22;23517;50.390;8.616;2023-05-14T04:30:54;7.30;77.50
37678;DHT22;23517;50.390;8.616;2023-05-14T04:33:21;7.30;78.40
37678;DHT22;23517;50.390;8.616;2023-05-14T04:35:47;7.40;80.20
37678;DHT22;23517;50.390;8.616;2023-05-14T04:38:14;7.50;79.20
37678;DHT22;23517;50.390;8.616;2023-05-14T04:40:41;7.50;79.70
37678;DHT22;23517;50.390;8.616;2023-05-14T04:43:08;7.70;79.10
37678;DHT22;23517;50.390;8.616;2023-05-14T04:45:35;7.80;78.20
37678;DHT22;23517;50.390;8.616;2023-05-14T04:48:03;8.00;77.20
37678;DHT22;23517;50.390;8.616;2023-05-14T04:50:30;8.00;77.10
37678;DHT22;23517;50.390;8.616;2023-05-14T04:52:56;8.00;76.40
37678;DHT22;23517;50.390;8.616;2023-05-14T04:55:23;8.10;76.70
37678;DHT22;23517;50.390;8.616;2023-05-14T04:57:50;8.00;77.30
37678;DHT22;23517;50.390;8.616;2023-05-14T05:00:17;8.10;76.70
37678;DHT22;23517;50.390;8.616;2023-05-14T05:02:44;8.00;75.60
37678;DHT22;23517;50.390;8.616;2023-05-14T05:05:11;8.10;76.90
37678;DHT22;23517;50.390;8.616;2023-05-14T05:07:37;8.20;77.60
37678;DHT22;23517;50.390;8.616;2023-05-14T05:10:05;8.20;77.10
37678;DHT22;23517;50.390;8.616;2023-05-14T05:12:32;8.40;77.00
37678;DHT22;23517;50.390;8.616;2023-05-14T05:15:00;8.40;75.70
37678;DHT22;23517;50.390;8.616;2023-05-14T05:17:28;8.60;75.40
37678;DHT22;23517;50.390;8.616;2023-05-14T05:19:55;8.70;75.40
37678;DHT22;23517;50.390;8.616;2023-05-14T05:22:22;9.00;72.80
37678;DHT22;23517;50.390;8.616;2023-05-14T05:24:49;9.10;73.00
37678;DHT22;23517;50.390;8.616;2023-05-14T05:27:16;9.40;70.00
37678;DHT22;23517;50.390;8.616;2023-05-14T05:29:43;9.60;70.10
37678;DHT22;23517;50.390;8.616;2023-05-14T05:32:10;10.00;69.30
37678;DHT22;23517;50.390;8.616;2023-05-14T05:34:36;10.40;68.60
37678;DHT22;23517;50.390;8.616;2023-05-14T05:37:04;10.90;64.80
37678;DHT22;23517;50.390;8.616;2023-05-14T05:39:31;11.10;64.20
37678;DHT22;23517;50.390;8.616;2023-05-14T05:42:01;11.20;62.70
37678;DHT22;23517;50.390;8.616;2023-05-14T05:44:27;11.30;62.10
37678;DHT22;23517;50.390;8.616;2023-05-14T05:46:54;11.30;62.20
37678;DHT22;23517;50.390;8.616;2023-05-14T05:49:22;11.30;60.20
37678;DHT22;23517;50.390;8.616;2023-05-14T05:51:49;11.40;62.60
37678;DHT22;23517;50.390;8.616;2023-05-14T05:54:16;11.70;63.10
37678;DHT22;23517;50.390;8.616;2023-05-14T05:56:43;12.40;58.10
37678;DHT22;23517;50.390;8.616;2023-05-14T05:59:09;12.70;55.30
37678;DHT22;23517;50.390;8.616;2023-05-14T06:01:36;12.90;54.90
37678;DHT22;23517;50.390;8.616;2023-05-14T06:04:03;13.10;55.70
37678;DHT22;23517;50.390;8.616;2023-05-14T06:06:31;13.30;55.00
37678;DHT22;23517;50.390;8.616;2023-05-14T06:08:58;13.60;52.50
37678;DHT22;23517;50.390;8.616;2023-05-14T06:11:27;13.50;52.40
37678;DHT22;23517;50.390;8.616;2023-05-14T06:13:54;13.10;54.80
37678;DHT22;23517;50.390;8.616;2023-05-14T06:16:20;12.90;55.70
37678;DHT22;23517;50.390;8.616;2023-05-14T06:18:47;12.70;57.70
37678;DHT22;23517;50.390;8.616;2023-05-14T06:21:14;12.70;58.00
37678;DHT22;23517;50.390;8.616;2023-05-14T06:23:41;12.60;58.50
37678;DHT22;23517;50.390;8.616;2023-05-14T06:26:07;12.60;58.60
37678;DHT22;23517;50.390;8.616;2023-05-14T06:28:34;12.50;59.10
37678;DHT22;23517;50.390;8.616;2023-05-14T06:31:01;12.80;60.10
37678;DHT22;23517;50.390;8.616;2023-05-14T06:33:27;13.70;56.20
37678;DHT22;23517;50.390;8.616;2023-05-14T06:36:03;14.90;51.70
37678;DHT22;23517;50.390;8.616;2023-05-14T06:38:32;15.60;44.10
37678;DHT22;23517;50.390;8.616;2023-05-14T06:40:59;15.10;46.80
37678;DHT22;23517;50.390;8.616;2023-05-14T06:43:26;15.20;46.40
37678;DHT22;23517;50.390;8.616;2023-05-14T06:45:53;15.40;46.00
37678;DHT22;23517;50.390;8.616;2023-05-14T06:48:20;15.80;45.10
37678;DHT22;23517;50.390;8.616;2023-05-14T06:50:48;16.00;44.10
37678;DHT22;23517;50.390;8.616;2023-05-14T06:53:15;16.00;45.00
37678;DHT22;23517;50.390;8.616;2023-05-14T06:55:42;16.80;40.50
37678;DHT22;23517;50.390;8.616;2023-05-14T06:58:09;18.10;35.60
37678;DHT22;23517;50.390;8.616;2023-05-14T07:00:35;19.10;33.80
37678;DHT22;23517;50.390;8.616;2023-05-14T07:03:02;19.80;30.90
37678;DHT22;23517;50.390;8.616;2023-05-14T07:05:29;20.70;28.50
37678;DHT22;23517;50.390;8.616;2023-05-14T07:07:55;21.80;27.00
37678;DHT22;23517;50.390;8.616;2023-05-14T07:10:22;23.00;24.00
37678;DHT22;23517;50.390;8.616;2023-05-14T07:15:16;24.40;19.80
37678;DHT22;23517;50.390;8.616;2023-05-14T07:17:43;25.00;19.00
37678;DHT22;23517;50.390;8.616;2023-05-14T07:20:11;25.50;18.10
37678;DHT22;23517;50.390;8.616;2023-05-14T07:22:38;26.70;17.50
37678;DHT22;23517;50.390;8.616;2023-05-14T07:25:05;27.70;16.40
37678;DHT22;23517;50.390;8.616;2023-05-14T07:29:59;27.30;16.20
37678;DHT22;23517;50.390;8.616;2023-05-14T07:32:26;27.80;13.70
37678;DHT22;23517;50.390;8.616;2023-05-14T07:34:53;28.10;13.30
37678;DHT22;23517;50.390;8.616;2023-05-14T07:37:19;27.40;21.60
37678;DHT22;23517;50.390;8.616;2023-05-14T07:39:49;27.70;14.20
37678;DHT22;23517;50.390;8.616;2023-05-14T07:42:16;27.50;14.40
37678;DHT22;23517;50.390;8.616;2023-05-14T07:45:01;27.20;14.40
37678;DHT22;23517;50.390;8.616;2023-05-14T07:47:28;27.00;14.50
37678;DHT22;23517;50.390;8.616;2023-05-14T07:49:55;29.20;11.70
37678;DHT22;23517;50.390;8.616;2023-05-14T07:52:23;28.90;11.70
37678;DHT22;23517;50.390;8.616;2023-05-14T07:54:50;27.10;14.40
37678;DHT22;23517;50.390;8.616;2023-05-14T07:57:18;27.50;14.10
37678;DHT22;23517;50.390;8.616;2023-05-14T07:59:46;28.30;12.40
37678;DHT22;23517;50.390;8.616;2023-05-14T08:04:42;28.30;11.50
37678;DHT22;23517;50.390;8.616;2023-05-14T08:07:09;29.10;12.60
37678;DHT22;23517;50.390;8.616;2023-05-14T08:09:36;29.10;12.80
37678;DHT22;23517;50.390;8.616;2023-05-14T08:12:03;28.10;13.70
37678;DHT22;23517;50.390;8.616;2023-05-14T08:14:30;28.30;13.30
37678;DHT22;23517;50.390;8.616;2023-05-14T08:16:57;29.50;11.90
37678;DHT22;23517;50.390;8.616;2023-05-14T08:19:24;29.70;11.20
37678;DHT22;23517;50.390;8.616;2023-05-14T08:21:52;29.50;11.30
37678;DHT22;23517;50.390;8.616;2023-05-14T08:24:19;29.50;12.40
37678;DHT22;23517;50.390;8.616;2023-05-14T08:26:46;28.90;12.40
37678;DHT22;23517;50.390;8.616;2023-05-14T08:29:12;29.10;11.80
37678;DHT22;23517;50.390;8.616;2023-05-14T08:31:43;28.90;11.90
37678;DHT22;23517;50.390;8.616;2023-05-14T08:34:09;29.30;11.20
37678;DHT22;23517;50.390;8.616;2023-05-14T08:36:37;28.10;12.80
37678;DHT22;23517;50.390;8.616;2023-05-14T08:39:04;27.60;12.90
37678;DHT22;23517;50.390;8.616;2023-05-14T08:41:33;26.50;14.10
37678;DHT22;23517;50.390;8.616;2023-05-14T08:46:35;25.90;15.10
37678;DHT22;23517;50.390;8.616;2023-05-14T08:49:18;25.80;16.00
37678;DHT22;23517;50.390;8.616;2023-05-14T08:54:18;24.90;15.40
37678;DHT22;23517;50.390;8.616;2023-05-14T08:56:45;25.70;14.60
37678;DHT22;23517;50.390;8.616;2023-05-14T08:59:12;26.70;13.90
37678;DHT22;23517;50.390;8.616;2023-05-14T09:01:47;25.80;14.60
37678;DHT22;23517;50.390;8.616;2023-05-14T09:04:18;27.10;14.80
37678;DHT22;23517;50.390;8.616;2023-05-14T09:09:21;29.20;11.60
37678;DHT22;23517;50.390;8.616;2023-05-14T09:11:52;28.80;12.00
37678;DHT22;23517;50.390;8.616;2023-05-14T09:14:20;28.40;12.40
37678;DHT22;23517;50.390;8.616;2023-05-14T09:19:16;26.70;13.30
37678;DHT22;23517;50.390;8.616;2023-05-14T09:21:48;24.80;16.30
37678;DHT22;23517;50.390;8.616;2023-05-14T09:26:57;23.40;17.90
37678;DHT22;23517;50.390;8.616;2023-05-14T09:29:25;23.30;19.10
37678;DHT22;23517;50.390;8.616;2023-05-14T09:31:53;23.50;19.00
37678;DHT22;23517;50.390;8.616;2023-05-14T09:34:29;23.40;18.60
37678;DHT22;23517;50.390;8.616;2023-05-14T09:37:02;22.70;20.30
37678;DHT22;23517;50.390;8.616;2023-05-14T09:39:31;21.70;21.40
37678;DHT22;23517;50.390;8.616;2023-05-14T09:41:59;21.70;22.20
37678;DHT22;23517;50.390;8.616;2023-05-14T09:44:26;21.80;22.00
37678;DHT22;23517;50.390;8.616;2023-05-14T09:46:53;21.30;23.80
37678;DHT22;23517;50.390;8.616;2023-05-14T09:49:20;21.10;24.50
37678;DHT22;23517;50.390;8.616;2023-05-14T09:51:48;20.80;24.20
37678;DHT22;23517;50.390;8.616;2023-05-14T09:54:15;20.40;24.20
37678;DHT22;23517;50.390;8.616;2023-05-14T09:56:42;19.70;24.80
37678;DHT22;23517;50.390;8.616;2023-05-14T09:59:09;19.40;26.40
37678;DHT22;23517;50.390;8.616;2023-05-14T10:01:37;19.10;28.60
37678;DHT22;23517;50.390;8.616;2023-05-14T10:04:06;18.80;30.40
37678;DHT22;23517;50.390;8.616;2023-05-14T10:06:38;18.90;30.60
37678;DHT22;23517;50.390;8.616;2023-05-14T10:09:11;19.10;30.20
37678;DHT22;23517;50.390;8.616;2023-05-14T10:11:41;18.90;29.90
37678;DHT22;23517;50.390;8.616;2023-05-14T10:14:17;18.70;30.30
37678;DHT22;23517;50.390;8.616;2023-05-14T10:16:51;18.60;30.70
37678;DHT22;23517;50.390;8.616;2023-05-14T10:19:23;18.70;30.30
37678;DHT22;23517;50.390;8.616;2023-05-14T10:21:56;18.60;30.30
37678;DHT22;23517;50.390;8.616;2023-05-14T10:24:30;18.70;29.70
37678;DHT22;23517;50.390;8.616;2023-05-14T10:26:57;18.80;30.20
37678;DHT22;23517;50.390;8.616;2023-05-14T10:29:33;19.00;29.60
37678;DHT22;23517;50.390;8.616;2023-05-14T10:32:05;19.00;28.70
37678;DHT22;23517;50.390;8.616;2023-05-14T10:37:20;19.60;27.10
37678;DHT22;23517;50.390;8.616;2023-05-14T10:39:53;19.90;26.60
37678;DHT22;23517;50.390;8.616;2023-05-14T10:42:29;19.80;27.70
37678;DHT22;23517;50.390;8.616;2023-05-14T10:45:01;19.80;25.90
37678;DHT22;23517;50.390;8.616;2023-05-14T10:47:34;19.90;26.10
37678;DHT22;23517;50.390;8.616;2023-05-14T10:50:06;19.60;26.10
37678;DHT22;23517;50.390;8.616;2023-05-14T10:52:34;19.70;26.90
37678;DHT22;23517;50.390;8.616;2023-05-14T10:55:05;19.70;26.70
37678;DHT22;23517;50.390;8.616;2023-05-14T10:57:36;19.50;28.30
37678;DHT22;23517;50.390;8.616;2023-05-14T11:00:05;19.70;28.10
37678;DHT22;23517;50.390;8.616;2023-05-14T11:02:38;19.80;26.80
37678;DHT22;23517;50.390;8.616;2023-05-14T11:05:10;19.90;27.40
37678;DHT22;23517;50.390;8.616;2023-05-14T11:07:47;19.80;27.10
37678;DHT22;23517;50.390;8.616;2023-05-14T11:10:17;19.90;26.50
37678;DHT22;23517;50.390;8.616;2023-05-14T11:12:47;19.80;26.30
37678;DHT22;23517;50.390;8.616;2023-05-14T11:15:19;19.70;26.30
37678;DHT22;23517;50.390;8.616;2023-05-14T11:17:47;19.50;27.00
37678;DHT22;23517;50.390;8.616;2023-05-14T11:20:16;19.50;27.90
37678;DHT22;23517;50.390;8.616;2023-05-14T11:22:44;19.50;27.50
37678;DHT22;23517;50.390;8.616;2023-05-14T11:25:13;19.50;28.30
37678;DHT22;23517;50.390;8.616;2023-05-14T11:27:42;19.70;29.10
37678;DHT22;23517;50.390;8.616;2023-05-14T11:30:17;19.60;27.30
37678;DHT22;23517;50.390;8.616;2023-05-14T11:32:46;19.50;28.20
37678;DHT22;23517;50.390;8.616;2023-05-14T11:35:15;19.40;28.40
37678;DHT22;23517;50.390;8.616;2023-05-14T11:37:42;19.30;28.40
37678;DHT22;23517;50.390;8.616;2023-05-14T11:40:16;19.20;29.10
37678;DHT22;23517;50.390;8.616;2023-05-14T11:42:43;19.30;28.50
37678;DHT22;23517;50.390;8.616;2023-05-14T11:45:11;19.50;28.80
37678;DHT22;23517;50.390;8.616;2023-05-14T11:47:40;19.60;29.00
37678;DHT22;23517;50.390;8.616;2023-05-14T11:50:08;19.70;27.20
37678;DHT22;23517;50.390;8.616;2023-05-14T11:52:39;19.60;27.50
37678;DHT22;23517;50.390;8.616;2023-05-14T11:55:12;19.40;28.10
37678;DHT22;23517;50.390;8.616;2023-05-14T11:57:39;19.40;27.50
37678;DHT22;23517;50.390;8.616;2023-05-14T12:00:10;19.30;26.50
37678;DHT22;23517;50.390;8.616;2023-05-14T12:02:42;19.60;27.50
37678;DHT22;23517;50.390;8.616;2023-05-14T12:05:11;19.90;25.70
37678;DHT22;23517;50.390;8.616;2023-05-14T12:07:38;20.00;25.40
37678;DHT22;23517;50.390;8.616;2023-05-14T12:10:06;19.90;26.50
37678;DHT22;23517;50.390;8.616;2023-05-14T12:12:34;20.00;26.00
37678;DHT22;23517;50.390;8.616;2023-05-14T12:15:12;19.70;26.80
37678;DHT22;23517;50.390;8.616;2023-05-14T12:17:39;19.60;26.40
37678;DHT22;23517;50.390;8.616;2023-05-14T12:20:10;19.50;28.00
37678;DHT22;23517;50.390;8.616;2023-05-14T12:22:38;19.50;27.90
37678;DHT22;23517;50.390;8.616;2023-05-14T12:25:12;19.60;27.20
37678;DHT22;23517;50.390;8.616;2023-05-14T12:27:40;19.60;27.50
37678;DHT22;23517;50.390;8.616;2023-05-14T12:30:07;19.60;27.20
37678;DHT22;23517;50.390;8.616;2023-05-14T12:32:37;19.50;27.70
37678;DHT22;23517;50.390;8.616;2023-05-14T12:35:07;19.50;26.70
37678;DHT22;23517;50.390;8.616;2023-05-14T12:37:34;19.40;26.40
37678;DHT22;23517;50.390;8.616;2023-05-14T12:40:03;19.30;26.50
37678;DHT22;23517;50.390;8.616;2023-05-14T12:42:34;19.30;28.00
37678;DHT22;23517;50.390;8.616;2023-05-14T12:45:01;19.30;26.40
37678;DHT22;23517;50.390;8.616;2023-05-14T12:47:31;19.30;26.80
37678;DHT22;23517;50.390;8.616;2023-05-14T12:49:57;19.40;26.70
37678;DHT22;23517;50.390;8.616;2023-05-14T12:52:24;19.40;27.60
37678;DHT22;23517;50.390;8.616;2023-05-14T12:55:05;19.50;27.60
37678;DHT22;23517;50.390;8.616;2023-05-14T12:57:32;19.50;28.10
37678;DHT22;23517;50.390;8.616;2023-05-14T13:00:02;19.60;27.40
37678;DHT22;23517;50.390;8.616;2023-05-14T13:02:33;19.60;27.00
37678;DHT22;23517;50.390;8.616;2023-05-14T13:05:10;19.70;28.00
37678;DHT22;23517;50.390;8.616;2023-05-14T13:07:37;19.60;26.80
37678;DHT22;23517;50.390;8.616;2023-05-14T13:10:05;19.60;27.30
37678;DHT22;23517;50.390;8.616;2023-05-14T13:12:32;19.60;26.70
37678;DHT22;23517;50.390;8.616;2023-05-14T13:14:59;19.60;27.30
37678;DHT22;23517;50.390;8.616;2023-05-14T13:17:25;19.80;27.10
37678;DHT22;23517;50.390;8.616;2023-05-14T13:19:53;20.00;27.10
37678;DHT22;23517;50.390;8.616;2023-05-14T13:22:19;20.10;27.30
37678;DHT22;23517;50.390;8.616;2023-05-14T13:24:46;20.20;27.10
37678;DHT22;23517;50.390;8.616;2023-05-14T13:27:13;20.10;26.10
37678;DHT22;23517;50.390;8.616;2023-05-14T13:29:39;20.00;26.60
37678;DHT22;23517;50.390;8.616;2023-05-14T13:32:06;19.80;26.90
37678;DHT22;23517;50.390;8.616;2023-05-14T13:34:33;19.70;27.40
37678;DHT22;23517;50.390;8.616;2023-05-14T13:37:00;19.70;27.30
37678;DHT22;23517;50.390;8.616;2023-05-14T13:39:27;20.00;26.90
37678;DHT22;23517;50.390;8.616;2023-05-14T13:41:53;20.20;26.50
37678;DHT22;23517;50.390;8.616;2023-05-14T13:44:22;20.40;26.70
37678;DHT22;23517;50.390;8.616;2023-05-14T13:46:49;20.80;26.10
37678;DHT22;23517;50.390;8.616;2023-05-14T13:49:16;20.90;25.40
37678;DHT22;23517;50.390;8.616;2023-05-14T13:51:43;21.20;24.50
37678;DHT22;23517;50.390;8.616;2023-05-14T13:54:09;21.20;25.20
37678;DHT22;23517;50.390;8.616;2023-05-14T13:56:36;21.40;23.10
37678;DHT22;23517;50.390;8.616;2023-05-14T13:59:03;21.50;24.20
37678;DHT22;23517;50.390;8.616;2023-05-14T14:01:29;21.20;24.10
37678;DHT22;23517;50.390;8.616;2023-05-14T14:03:56;21.10;24.40
37678;DHT22;23517;50.390;8.616;2023-05-14T14:06:25;21.00;25.20
37678;DHT22;23517;50.390;8.616;2023-05-14T14:08:53;20.60;26.40
37678;DHT22;23517;50.390;8.616;2023-05-14T14:11:19;20.40;27.50
37678;DHT22;23517;50.390;8.616;2023-05-14T14:13:47;20.50;28.10
37678;DHT22;23517;50.390;8.616;2023-05-14T14:16:13;20.50;26.60
37678;DHT22;23517;50.390;8.616;2023-05-14T14:18:41;20.70;25.30
37678;DHT22;23517;50.390;8.616;2023-05-14T14:21:09;20.70;24.20
37678;DHT22;23517;50.390;8.616;2023-05-14T14:23:36;20.90;23.50
37678;DHT22;23517;50.390;8.616;2023-05-14T14:26:02;20.70;22.70
37678;DHT22;23517;50.390;8.616;2023-05-14T14:28:29;20.80;22.90
37678;DHT22;23517;50.390;8.616;2023-05-14T14:30:56;20.80;23.10
37678;DHT22;23517;50.390;8.616;2023-05-14T14:33:23;20.70;23.00
37678;DHT22;23517;50.390;8.616;2023-05-14T14:35:50;20.80;22.30
37678;DHT22;23517;50.390;8.616;2023-05-14T14:38:17;20.90;21.30
37678;DHT22;23517;50.390;8.616;2023-05-14T14:40:43;20.90;20.70
37678;DHT22;23517;50.390;8.616;2023-05-14T14:43:11;21.00;20.40
37678;DHT22;23517;50.390;8.616;2023-05-14T14:45:38;21.10;20.00
37678;DHT22;23517;50.390;8.616;2023-05-14T14:48:27;20.80;20.40
37678;DHT22;23517;50.390;8.616;2023-05-14T14:50:57;20.90;20.20
37678;DHT22;23517;50.390;8.616;2023-05-14T14:53:24;20.90;20.90
37678;DHT22;23517;50.390;8.616;2023-05-14T14:55:51;20.70;21.30
37678;DHT22;23517;50.390;8.616;2023-05-14T14:58:19;20.60;21.40
37678;DHT22;23517;50.390;8.616;2023-05-14T15:00:46;20.70;22.30
37678;DHT22;23517;50.390;8.616;2023-05-14T15:03:14;20.90;22.30
37678;DHT22;23517;50.390;8.616;2023-05-14T15:05:41;21.40;21.90
37678;DHT22;23517;50.390;8.616;2023-05-14T15:08:08;21.80;20.30
37678;DHT22;23517;50.390;8.616;2023-05-14T15:10:35;22.00;20.20
37678;DHT22;23517;50.390;8.616;2023-05-14T15:13:04;21.90;21.80
37678;DHT22;23517;50.390;8.616;2023-05-14T15:15:32;21.60;23.00
37678;DHT22;23517;50.390;8.616;2023-05-14T15:18:00;21.40;23.70
37678;DHT22;23517;50.390;8.616;2023-05-14T15:20:28;20.80;22.90
37678;DHT22;23517;50.390;8.616;2023-05-14T15:22:55;20.70;23.10
37678;DHT22;23517;50.390;8.616;2023-05-14T15:25:22;20.30;23.70
37678;DHT22;23517;50.390;8.616;2023-05-14T15:27:50;19.90;24.10
37678;DHT22;23517;50.390;8.616;2023-05-14T15:30:17;19.60;24.70
37678;DHT22;23517;50.390;8.616;2023-05-14T15:32:44;19.40;25.70
37678;DHT22;23517;50.390;8.616;2023-05-14T15:35:12;19.40;25.70
37678;DHT22;23517;50.390;8.616;2023-05-14T15:37:40;19.10;26.10
37678;DHT22;23517;50.390;8.616;2023-05-14T15:40:08;19.00;26.70
37678;DHT22;23517;50.390;8.616;2023-05-14T15:42:37;19.00;26.40
37678;DHT22;23517;50.390;8.616;2023-05-14T15:45:11;19.20;26.20
37678;DHT22;23517;50.390;8.616;2023-05-14T15:47:39;19.40;26.30
37678;DHT22;23517;50.390;8.616;2023-05-14T15:50:07;19.60;25.80
37678;DHT22;23517;50.390;8.616;2023-05-14T15:52:34;19.80;22.50
37678;DHT22;23517;50.390;8.616;2023-05-14T15:55:02;20.00;21.50
37678;DHT22;23517;50.390;8.616;2023-05-14T15:57:30;20.00;22.80
37678;DHT22;23517;50.390;8.616;2023-05-14T15:59:57;20.00;23.80
37678;DHT22;23517;50.390;8.616;2023-05-14T16:02:24;20.00;23.60
37678;DHT22;23517;50.390;8.616;2023-05-14T16:04:53;19.80;23.00
37678;DHT22;23517;50.390;8.616;2023-05-14T16:07:20;19.60;22.30
37678;DHT22;23517;50.390;8.616;2023-05-14T16:09:46;19.60;23.40